sensor_id;sensor_type;location;lat;lon;timestamp;temperature;humidity
21306;DHT22;10812;51.838;5.838;2022-10-20T00:02:24;8.40;99.90
21306;DHT22;10812;51.838;5.838;2022-10-20T00:04:52;8.40;99.90
21306;DHT22;10812;51.838;5.838;2022-10-20T00:07:21;8.30;99.90
21306;DHT22;10812;51.838;5.838;2022-10-20T00:09:49;8.30;99.90
21306;DHT22;10812;51.838;5.838;2022-10-20T00:12:17;8.30;99.90
21306;DHT22;10812;51.838;5.838;2022-10-20T00:14:47;8.40;99.90
21306;DHT22;10812;51.838;5.838;2022-10-20T00:17:15;8.40;99.90
21306;DHT22;10812;51.838;5.838;2022-10-20T00:19:46;8.30;99.90
21306;DHT22;10812;51.838;5.838;2022-10-20T00:22:14;8.30;99.90
21306;DHT22;10812;51.838;5.838;2022-10-20T00:24:42;8.30;99.90
21306;DHT22;10812;51.838;5.838;2022-10-20T00:27:10;8.30;99.90
21306;DHT22;10812;51.838;5.838;2022-10-20T00:29:38;8.20;99.90
21306;DHT22;10812;51.838;5.838;2022-10-20T00:32:08;8.20;99.90
21306;DHT22;10812;51.838;5.838;2022-10-20T00:34:36;8.20;99.90
21306;DHT22;10812;51.838;5.838;2022-10-20T00:37:04;8.20;99.90
21306;DHT22;10812;51.838;5.838;2022-10-20T00:39:32;8.10;99.90
21306;DHT22;10812;51.838;5.838;2022-10-20T00:42:01;8.30;99.90
21306;DHT22;10812;51.838;5.838;2022-10-20T00:48:14;8.20;99.90
21306;DHT22;10812;51.838;5.838;2022-10-20T00:50:48;8.10;99.90
21306;DHT22;10812;51.838;5.838;2022-10-20T00:53:17;8.10;99.90
21306;DHT22;10812;51.838;5.838;2022-10-20T00:55:48;8.10;99.90
21306;DHT22;10812;51.838;5.838;2022-10-20T00:58:17;8.10;99.90
21306;DHT22;10812;51.838;5.838;2022-10-20T01:00:47;8.10;99.90
21306;DHT22;10812;51.838;5.838;2022-10-20T01:03:23;8.10;99.90
21306;DHT22;10812;51.838;5.838;2022-10-20T01:05:52;8.10;99.90
21306;DHT22;10812;51.838;5.838;2022-10-20T01:08:20;8.10;99.90
21306;DHT22;10812;51.838;5.838;2022-10-20T01:10:56;8.10;99.90
21306;DHT22;10812;51.838;5.838;2022-10-20T01:13:31;8.10;99.90
21306;DHT22;10812;51.838;5.838;2022-10-20T01:16:06;8.20;99.90
21306;DHT22;10812;51.838;5.838;2022-10-20T01:18:45;8.00;99.90
21306;DHT22;10812;51.838;5.838;2022-10-20T01:21:37;8.00;99.90
21306;DHT22;10812;51.838;5.838;2022-10-20T01:24:26;7.90;99.90
21306;DHT22;10812;51.838;5.838;2022-10-20T01:27:16;8.00;99.90
21306;DHT22;10812;51.838;5.838;2022-10-20T01:29:52;7.90;99.90
21306;DHT22;10812;51.838;5.838;2022-10-20T01:32:27;8.00;99.90
21306;DHT22;10812;51.838;5.838;2022-10-20T01:35:03;7.90;99.90
21306;DHT22;10812;51.838;5.838;2022-10-20T01:37:41;7.80;99.90
21306;DHT22;10812;51.838;5.838;2022-10-20T01:40:19;7.80;99.90
21306;DHT22;10812;51.838;5.838;2022-10-20T01:42:51;7.80;99.90
21306;DHT22;10812;51.838;5.838;2022-10-20T01:45:23;7.80;99.90
21306;DHT22;10812;51.838;5.838;2022-10-20T01:47:53;7.90;99.90
21306;DHT22;10812;51.838;5.838;2022-10-20T01:50:21;7.90;99.90
21306;DHT22;10812;51.838;5.838;2022-10-20T02:12:09;7.60;99.90
21306;DHT22;10812;51.838;5.838;2022-10-20T02:14:41;7.60;99.90
21306;DHT22;10812;51.838;5.838;2022-10-20T02:17:12;7.70;99.90
21306;DHT22;10812;51.838;5.838;2022-10-20T02:19:43;7.60;99.90
21306;DHT22;10812;51.838;5.838;2022-10-20T02:22:13;7.60;99.90
21306;DHT22;10812;51.838;5.838;2022-10-20T02:24:43;7.70;99.90
21306;DHT22;10812;51.838;5.838;2022-10-20T02:27:15;7.70;99.90
21306;DHT22;10812;51.838;5.838;2022-10-20T02:29:48;7.60;99.90
21306;DHT22;10812;51.838;5.838;2022-10-20T02:32:17;7.60;99.90
21306;DHT22;10812;51.838;5.838;2022-10-20T02:34:46;7.60;99.90
21306;DHT22;10812;51.838;5.838;2022-10-20T02:37:15;7.50;99.90
21306;DHT22;10812;51.838;5.838;2022-10-20T02:39:48;7.60;99.90
21306;DHT22;10812;51.838;5.838;2022-10-20T02:42:17;7.60;99.90
21306;DHT22;10812;51.838;5.838;2022-10-20T02:44:45;7.60;99.90
21306;DHT22;10812;51.838;5.838;2022-10-20T02:47:13;7.60;99.90
21306;DHT22;10812;51.838;5.838;2022-10-20T02:49:42;7.50;99.90
21306;DHT22;10812;51.838;5.838;2022-10-20T02:52:10;7.60;99.90
21306;DHT22;10812;51.838;5.838;2022-10-20T02:54:39;7.60;99.90
21306;DHT22;10812;51.838;5.838;2022-10-20T02:57:07;7.60;99.90
21306;DHT22;10812;51.838;5.838;2022-10-20T02:59:36;7.50;99.90
21306;DHT22;10812;51.838;5.838;2022-10-20T03:07:35;7.60;99.90
21306;DHT22;10812;51.838;5.838;2022-10-20T03:10:04;7.70;99.90
21306;DHT22;10812;51.838;5.838;2022-10-20T03:12:32;7.60;99.90
21306;DHT22;10812;51.838;5.838;2022-10-20T03:15:03;7.60;99.90
21306;DHT22;10812;51.838;5.838;2022-10-20T03:17:31;7.60;99.90
21306;DHT22;10812;51.838;5.838;2022-10-20T03:19:59;7.70;99.90
21306;DHT22;10812;51.838;5.838;2022-10-20T03:22:28;7.60;99.90
21306;DHT22;10812;51.838;5.838;2022-10-20T03:24:56;7.60;99.90
21306;DHT22;10812;51.838;5.838;2022-10-20T03:27:24;7.60;99.90
21306;DHT22;10812;51.838;5.838;2022-10-20T03:29:52;7.60;99.90
21306;DHT22;10812;51.838;5.838;2022-10-20T03:32:22;7.50;99.90
21306;DHT22;10812;51.838;5.838;2022-10-20T03:34:50;7.60;99.90
21306;DHT22;10812;51.838;5.838;2022-10-20T03:37:18;7.60;99.90
21306;DHT22;10812;51.838;5.838;2022-10-20T03:39:46;7.50;99.90
21306;DHT22;10812;51.838;5.838;2022-10-20T03:42:14;7.50;99.90
21306;DHT22;10812;51.838;5.838;2022-10-20T03:44:42;7.50;99.90
21306;DHT22;10812;51.838;5.838;2022-10-20T03:47:12;7.60;99.90
21306;DHT22;10812;51.838;5.838;2022-10-20T03:49:41;7.60;99.90
21306;DHT22;10812;51.838;5.838;2022-10-20T03:52:09;7.70;99.90
21306;DHT22;10812;51.838;5.838;2022-10-20T03:54:37;7.70;99.90
21306;DHT22;10812;51.838;5.838;2022-10-20T03:57:06;7.70;99.90
21306;DHT22;10812;51.838;5.838;2022-10-20T03:59:34;7.80;99.90
21306;DHT22;10812;51.838;5.838;2022-10-20T04:02:03;7.90;99.90
21306;DHT22;10812;51.838;5.838;2022-10-20T04:04:31;7.80;99.90
21306;DHT22;10812;51.838;5.838;2022-10-20T04:20:03;7.90;99.90
21306;DHT22;10812;51.838;5.838;2022-10-20T04:22:31;7.90;99.90
21306;DHT22;10812;51.838;5.838;2022-10-20T04:25:01;7.80;99.90
21306;DHT22;10812;51.838;5.838;2022-10-20T04:27:29;7.80;99.90
21306;DHT22;10812;51.838;5.838;2022-10-20T04:29:57;7.80;99.90
21306;DHT22;10812;51.838;5.838;2022-10-20T04:32:25;7.70;99.90
21306;DHT22;10812;51.838;5.838;2022-10-20T04:34:53;7.70;99.90
21306;DHT22;10812;51.838;5.838;2022-10-20T04:37:22;7.70;99.90
21306;DHT22;10812;51.838;5.838;2022-10-20T04:39:50;7.80;99.90
21306;DHT22;10812;51.838;5.838;2022-10-20T04:42:19;7.90;99.90
21306;DHT22;10812;51.838;5.838;2022-10-20T04:44:47;7.90;99.90
21306;DHT22;10812;51.838;5.838;2022-10-20T04:47:15;7.90;99.90
21306;DHT22;10812;51.838;5.838;2022-10-20T04:49:43;7.90;99.90
21306;DHT22;10812;51.838;5.838;2022-10-20T04:52:11;7.90;99.90
21306;DHT22;10812;51.838;5.838;2022-10-20T04:54:40;7.90;99.90
21306;DHT22;10812;51.838;5.838;2022-10-20T04:57:08;7.90;99.90
21306;DHT22;10812;51.838;5.838;2022-10-20T04:59:37;7.90;99.90
21306;DHT22;10812;51.838;5.838;2022-10-20T05:02:05;7.90;99.90
21306;DHT22;10812;51.838;5.838;2022-10-20T05:04:33;7.90;99.90
21306;DHT22;10812;51.838;5.838;2022-10-20T05:07:01;7.90;99.90
21306;DHT22;10812;51.838;5.838;2022-10-20T05:09:29;7.90;99.90
21306;DHT22;10812;51.838;5.838;2022-10-20T05:12:00;8.00;99.90
21306;DHT22;10812;51.838;5.838;2022-10-20T05:14:28;8.00;99.90
21306;DHT22;10812;51.838;5.838;2022-10-20T05:16:56;8.00;99.90
21306;DHT22;10812;51.838;5.838;2022-10-20T05:19:24;8.10;99.90
21306;DHT22;10812;51.838;5.838;2022-10-20T05:21:52;8.10;99.90
21306;DHT22;10812;51.838;5.838;2022-10-20T05:24:20;8.00;99.90
21306;DHT22;10812;51.838;5.838;2022-10-20T05:26:52;8.00;99.90
21306;DHT22;10812;51.838;5.838;2022-10-20T05:29:22;8.10;99.90
21306;DHT22;10812;51.838;5.838;2022-10-20T05:31:50;8.10;99.90
21306;DHT22;10812;51.838;5.838;2022-10-20T05:34:18;8.10;99.90
21306;DHT22;10812;51.838;5.838;2022-10-20T05:36:46;8.00;99.90
21306;DHT22;10812;51.838;5.838;2022-10-20T05:39:14;8.10;99.90
21306;DHT22;10812;51.838;5.838;2022-10-20T05:41:42;8.10;99.90
21306;DHT22;10812;51.838;5.838;2022-10-20T05:44:11;8.00;99.90
21306;DHT22;10812;51.838;5.838;2022-10-20T05:46:41;8.10;99.90
21306;DHT22;10812;51.838;5.838;2022-10-20T05:49:11;8.00;99.90
21306;DHT22;10812;51.838;5.838;2022-10-20T05:51:42;8.00;99.90
21306;DHT22;10812;51.838;5.838;2022-10-20T05:54:11;8.10;99.90
21306;DHT22;10812;51.838;5.838;2022-10-20T05:56:40;8.10;99.90
21306;DHT22;10812;51.838;5.838;2022-10-20T05:59:09;8.10;99.90
21306;DHT22;10812;51.838;5.838;2022-10-20T06:01:38;8.20;99.90
21306;DHT22;10812;51.838;5.838;2022-10-20T06:04:17;8.30;99.90
21306;DHT22;10812;51.838;5.838;2022-10-20T06:06:46;8.30;99.90
21306;DHT22;10812;51.838;5.838;2022-10-20T06:09:15;8.40;99.90
21306;DHT22;10812;51.838;5.838;2022-10-20T06:11:43;8.40;99.90
21306;DHT22;10812;51.838;5.838;2022-10-20T06:14:11;8.30;99.90
21306;DHT22;10812;51.838;5.838;2022-10-20T06:16:39;8.40;99.90
21306;DHT22;10812;51.838;5.838;2022-10-20T06:19:07;8.30;99.90
21306;DHT22;10812;51.838;5.838;2022-10-20T06:21:37;8.40;99.90
21306;DHT22;10812;51.838;5.838;2022-10-20T06:24:06;8.50;99.90
21306;DHT22;10812;51.838;5.838;2022-10-20T06:26:35;8.50;99.90
21306;DHT22;10812;51.838;5.838;2022-10-20T06:29:04;8.50;99.90
21306;DHT22;10812;51.838;5.838;2022-10-20T06:31:34;8.60;99.90
21306;DHT22;10812;51.838;5.838;2022-10-20T06:34:06;8.70;99.90
21306;DHT22;10812;51.838;5.838;2022-10-20T06:36:35;8.90;99.90
21306;DHT22;10812;51.838;5.838;2022-10-20T06:39:06;9.00;99.90
21306;DHT22;10812;51.838;5.838;2022-10-20T06:41:35;9.40;99.90
21306;DHT22;10812;51.838;5.838;2022-10-20T06:44:03;9.80;99.90
21306;DHT22;10812;51.838;5.838;2022-10-20T06:46:33;10.00;99.90
21306;DHT22;10812;51.838;5.838;2022-10-20T06:49:03;10.20;99.90
21306;DHT22;10812;51.838;5.838;2022-10-20T06:51:32;10.30;99.90
21306;DHT22;10812;51.838;5.838;2022-10-20T06:54:00;10.30;99.90
21306;DHT22;10812;51.838;5.838;2022-10-20T06:56:32;10.40;99.90
21306;DHT22;10812;51.838;5.838;2022-10-20T06:59:01;10.40;99.90
21306;DHT22;10812;51.838;5.838;2022-10-20T07:01:31;10.10;99.90
21306;DHT22;10812;51.838;5.838;2022-10-20T07:04:00;10.10;99.90
21306;DHT22;10812;51.838;5.838;2022-10-20T07:06:30;10.00;99.90
21306;DHT22;10812;51.838;5.838;2022-10-20T07:08:59;10.00;99.90
21306;DHT22;10812;51.838;5.838;2022-10-20T07:11:31;10.00;99.90
21306;DHT22;10812;51.838;5.838;2022-10-20T07:14:00;10.00;99.90
21306;DHT22;10812;51.838;5.838;2022-10-20T07:16:30;10.00;99.90
21306;DHT22;10812;51.838;5.838;2022-10-20T07:18:59;10.20;99.90
21306;DHT22;10812;51.838;5.838;2022-10-20T07:21:28;10.50;99.90
21306;DHT22;10812;51.838;5.838;2022-10-20T07:24:05;10.60;99.90
21306;DHT22;10812;51.838;5.838;2022-10-20T07:26:35;10.80;99.90
21306;DHT22;10812;51.838;5.838;2022-10-20T07:29:05;10.60;99.90
21306;DHT22;10812;51.838;5.838;2022-10-20T07:31:35;10.50;99.90
21306;DHT22;10812;51.838;5.838;2022-10-20T07:34:04;10.50;99.90
21306;DHT22;10812;51.838;5.838;2022-10-20T07:40:41;10.20;99.90
21306;DHT22;10812;51.838;5.838;2022-10-20T07:43:10;10.10;99.90
21306;DHT22;10812;51.838;5.838;2022-10-20T07:45:38;10.30;99.90
21306;DHT22;10812;51.838;5.838;2022-10-20T07:48:08;10.40;99.90
21306;DHT22;10812;51.838;5.838;2022-10-20T07:50:36;10.50;99.90
21306;DHT22;10812;51.838;5.838;2022-10-20T07:53:05;10.70;99.90
21306;DHT22;10812;51.838;5.838;2022-10-20T07:55:34;11.00;99.90
21306;DHT22;10812;51.838;5.838;2022-10-20T07:58:05;11.30;99.90
21306;DHT22;10812;51.838;5.838;2022-10-20T08:00:34;11.30;99.90
21306;DHT22;10812;51.838;5.838;2022-10-20T08:03:02;11.40;99.90
21306;DHT22;10812;51.838;5.838;2022-10-20T08:05:30;11.60;99.90
21306;DHT22;10812;51.838;5.838;2022-10-20T08:07:59;11.70;99.90
21306;DHT22;10812;51.838;5.838;2022-10-20T08:10:27;11.90;99.90
21306;DHT22;10812;51.838;5.838;2022-10-20T08:12:55;11.90;99.90
21306;DHT22;10812;51.838;5.838;2022-10-20T08:15:23;12.10;99.90
21306;DHT22;10812;51.838;5.838;2022-10-20T08:17:53;12.20;99.90
21306;DHT22;10812;51.838;5.838;2022-10-20T08:20:21;12.40;99.90
21306;DHT22;10812;51.838;5.838;2022-10-20T08:22:53;12.50;99.90
21306;DHT22;10812;51.838;5.838;2022-10-20T08:25:22;12.60;99.90
21306;DHT22;10812;51.838;5.838;2022-10-20T08:27:50;12.90;99.90
21306;DHT22;10812;51.838;5.838;2022-10-20T08:30:18;13.00;99.90
21306;DHT22;10812;51.838;5.838;2022-10-20T08:32:50;13.20;99.90
21306;DHT22;10812;51.838;5.838;2022-10-20T08:35:20;13.40;99.90
21306;DHT22;10812;51.838;5.838;2022-10-20T08:37:48;13.50;99.90
21306;DHT22;10812;51.838;5.838;2022-10-20T08:40:18;13.50;99.90
21306;DHT22;10812;51.838;5.838;2022-10-20T08:42:48;13.80;99.90
21306;DHT22;10812;51.838;5.838;2022-10-20T08:45:21;14.30;99.90
21306;DHT22;10812;51.838;5.838;2022-10-20T08:47:51;14.50;99.90
21306;DHT22;10812;51.838;5.838;2022-10-20T08:50:23;14.50;99.90
21306;DHT22;10812;51.838;5.838;2022-10-20T08:52:56;14.60;99.90
21306;DHT22;10812;51.838;5.838;2022-10-20T08:55:27;14.90;99.90
21306;DHT22;10812;51.838;5.838;2022-10-20T08:57:59;14.80;99.90
21306;DHT22;10812;51.838;5.838;2022-10-20T09:00:28;14.60;99.90
21306;DHT22;10812;51.838;5.838;2022-10-20T09:03:09;14.50;99.90
21306;DHT22;10812;51.838;5.838;2022-10-20T09:05:42;14.40;99.90
21306;DHT22;10812;51.838;5.838;2022-10-20T09:08:10;14.40;99.90
21306;DHT22;10812;51.838;5.838;2022-10-20T09:10:41;14.60;99.90
21306;DHT22;10812;51.838;5.838;2022-10-20T09:13:17;14.50;99.90
21306;DHT22;10812;51.838;5.838;2022-10-20T09:15:47;14.40;99.90
21306;DHT22;10812;51.838;5.838;2022-10-20T09:18:17;14.40;99.90
21306;DHT22;10812;51.838;5.838;2022-10-20T09:20:50;14.50;99.90
21306;DHT22;10812;51.838;5.838;2022-10-20T09:23:23;14.50;99.90
21306;DHT22;10812;51.838;5.838;2022-10-20T09:26:10;14.40;99.90
21306;DHT22;10812;51.838;5.838;2022-10-20T09:29:05;14.40;99.90
21306;DHT22;10812;51.838;5.838;2022-10-20T09:31:42;14.50;99.90
21306;DHT22;10812;51.838;5.838;2022-10-20T09:34:22;14.40;99.90
21306;DHT22;10812;51.838;5.838;2022-10-20T09:36:54;14.60;99.90
21306;DHT22;10812;51.838;5.838;2022-10-20T09:39:26;14.60;99.90
21306;DHT22;10812;51.838;5.838;2022-10-20T09:42:01;14.60;99.90
21306;DHT22;10812;51.838;5.838;2022-10-20T09:44:31;14.60;99.90
21306;DHT22;10812;51.838;5.838;2022-10-20T09:47:00;14.60;99.90
21306;DHT22;10812;51.838;5.838;2022-10-20T09:49:30;14.60;99.90
21306;DHT22;10812;51.838;5.838;2022-10-20T09:52:02;14.50;99.90
21306;DHT22;10812;51.838;5.838;2022-10-20T09:54:31;14.60;99.90
21306;DHT22;10812;51.838;5.838;2022-10-20T09:57:04;14.60;99.90
21306;DHT22;10812;51.838;5.838;2022-10-20T09:59:34;14.60;99.90
21306;DHT22;10812;51.838;5.838;2022-10-20T10:02:24;14.50;99.90
21306;DHT22;10812;51.838;5.838;2022-10-20T10:04:53;14.50;99.90
21306;DHT22;10812;51.838;5.838;2022-10-20T10:07:39;14.40;99.90
21306;DHT22;10812;51.838;5.838;2022-10-20T10:10:23;14.40;99.90
21306;DHT22;10812;51.838;5.838;2022-10-20T10:12:52;14.30;99.90
21306;DHT22;10812;51.838;5.838;2022-10-20T10:15:27;14.30;99.90
21306;DHT22;10812;51.838;5.838;2022-10-20T10:17:56;14.30;99.90
21306;DHT22;10812;51.838;5.838;2022-10-20T10:20:31;14.40;99.90
21306;DHT22;10812;51.838;5.838;2022-10-20T10:23:21;14.30;99.90
21306;DHT22;10812;51.838;5.838;2022-10-20T10:25:51;14.40;99.90
21306;DHT22;10812;51.838;5.838;2022-10-20T10:28:31;14.50;99.90
21306;DHT22;10812;51.838;5.838;2022-10-20T10:31:19;14.50;99.90
21306;DHT22;10812;51.838;5.838;2022-10-20T10:33:49;14.50;99.90
21306;DHT22;10812;51.838;5.838;2022-10-20T10:36:27;14.50;99.90
21306;DHT22;10812;51.838;5.838;2022-10-20T10:38:57;14.40;99.90
21306;DHT22;10812;51.838;5.838;2022-10-20T10:41:45;14.40;99.90
21306;DHT22;10812;51.838;5.838;2022-10-20T10:44:25;14.50;99.90
21306;DHT22;10812;51.838;5.838;2022-10-20T10:47:04;14.50;99.90
21306;DHT22;10812;51.838;5.838;2022-10-20T10:49:44;14.50;99.90
21306;DHT22;10812;51.838;5.838;2022-10-20T10:52:29;14.40;99.90
21306;DHT22;10812;51.838;5.838;2022-10-20T10:55:11;14.40;99.90
21306;DHT22;10812;51.838;5.838;2022-10-20T10:58:06;14.40;99.90
21306;DHT22;10812;51.838;5.838;2022-10-20T11:00:46;14.60;99.90
21306;DHT22;10812;51.838;5.838;2022-10-20T11:03:43;14.50;99.90
21306;DHT22;10812;51.838;5.838;2022-10-20T11:06:18;14.50;99.90
21306;DHT22;10812;51.838;5.838;2022-10-20T11:09:02;14.50;99.90
21306;DHT22;10812;51.838;5.838;2022-10-20T11:11:41;14.50;99.90
21306;DHT22;10812;51.838;5.838;2022-10-20T11:14:18;14.40;99.90
21306;DHT22;10812;51.838;5.838;2022-10-20T11:17:03;14.30;99.90
21306;DHT22;10812;51.838;5.838;2022-10-20T11:20:03;14.20;99.90
21306;DHT22;10812;51.838;5.838;2022-10-20T11:22:42;14.10;99.90
21306;DHT22;10812;51.838;5.838;2022-10-20T11:25:24;14.10;99.90
21306;DHT22;10812;51.838;5.838;2022-10-20T11:27:56;14.10;99.90
21306;DHT22;10812;51.838;5.838;2022-10-20T11:30:25;14.00;99.90
21306;DHT22;10812;51.838;5.838;2022-10-20T11:32:58;14.00;99.90
21306;DHT22;10812;51.838;5.838;2022-10-20T11:35:34;13.80;99.90
21306;DHT22;10812;51.838;5.838;2022-10-20T11:38:15;13.70;99.90
21306;DHT22;10812;51.838;5.838;2022-10-20T11:40:48;13.70;99.90
21306;DHT22;10812;51.838;5.838;2022-10-20T11:43:24;13.70;99.90
21306;DHT22;10812;51.838;5.838;2022-10-20T11:45:56;13.70;99.90
21306;DHT22;10812;51.838;5.838;2022-10-20T11:48:30;13.70;99.90
21306;DHT22;10812;51.838;5.838;2022-10-20T11:54:14;13.50;99.90
21306;DHT22;10812;51.838;5.838;2022-10-20T11:56:55;13.50;99.90
21306;DHT22;10812;51.838;5.838;2022-10-20T11:59:47;13.50;99.90
21306;DHT22;10812;51.838;5.838;2022-10-20T12:02:45;13.50;99.90
21306;DHT22;10812;51.838;5.838;2022-10-20T12:05:32;13.50;99.90
21306;DHT22;10812;51.838;5.838;2022-10-20T12:08:20;13.50;99.90
21306;DHT22;10812;51.838;5.838;2022-10-20T12:11:01;13.60;99.90
21306;DHT22;10812;51.838;5.838;2022-10-20T12:13:37;13.60;99.90
21306;DHT22;10812;51.838;5.838;2022-10-20T12:16:07;13.60;99.90
21306;DHT22;10812;51.838;5.838;2022-10-20T12:18:36;13.60;99.90
21306;DHT22;10812;51.838;5.838;2022-10-20T12:21:05;13.60;99.90
21306;DHT22;10812;51.838;5.838;2022-10-20T12:23:54;13.60;99.90
21306;DHT22;10812;51.838;5.838;2022-10-20T12:41:07;13.90;99.90
21306;DHT22;10812;51.838;5.838;2022-10-20T12:43:47;13.90;99.90
21306;DHT22;10812;51.838;5.838;2022-10-20T12:46:20;14.10;99.90
21306;DHT22;10812;51.838;5.838;2022-10-20T12:48:50;14.20;99.90
21306;DHT22;10812;51.838;5.838;2022-10-20T12:51:29;14.30;99.90
21306;DHT22;10812;51.838;5.838;2022-10-20T12:54:02;14.40;99.90
21306;DHT22;10812;51.838;5.838;2022-10-20T12:56:37;14.40;99.90
21306;DHT22;10812;51.838;5.838;2022-10-20T12:59:20;14.30;99.90
21306;DHT22;10812;51.838;5.838;2022-10-20T13:05:43;14.30;99.90
21306;DHT22;10812;51.838;5.838;2022-10-20T13:08:34;14.30;99.90
21306;DHT22;10812;51.838;5.838;2022-10-20T13:11:40;14.30;99.90
21306;DHT22;10812;51.838;5.838;2022-10-20T13:14:43;14.30;99.90
21306;DHT22;10812;51.838;5.838;2022-10-20T13:17:29;14.30;99.90
21306;DHT22;10812;51.838;5.838;2022-10-20T13:20:14;14.40;99.90
21306;DHT22;10812;51.838;5.838;2022-10-20T13:22:45;14.40;99.90
21306;DHT22;10812;51.838;5.838;2022-10-20T13:25:28;14.40;99.90
21306;DHT22;10812;51.838;5.838;2022-10-20T13:28:04;14.40;99.90
21306;DHT22;10812;51.838;5.838;2022-10-20T13:30:34;14.40;99.90
21306;DHT22;10812;51.838;5.838;2022-10-20T13:33:07;14.30;99.90
21306;DHT22;10812;51.838;5.838;2022-10-20T13:36:06;14.30;99.90
21306;DHT22;10812;51.838;5.838;2022-10-20T13:38:42;14.40;99.90
21306;DHT22;10812;51.838;5.838;2022-10-20T13:41:20;14.60;99.90
21306;DHT22;10812;51.838;5.838;2022-10-20T13:43:58;14.90;99.90
21306;DHT22;10812;51.838;5.838;2022-10-20T13:46:40;15.10;99.90
21306;DHT22;10812;51.838;5.838;2022-10-20T13:49:30;15.10;99.90
21306;DHT22;10812;51.838;5.838;2022-10-20T13:52:05;15.10;99.90
21306;DHT22;10812;51.838;5.838;2022-10-20T13:54:41;15.10;99.90
21306;DHT22;10812;51.838;5.838;2022-10-20T13:57:21;15.10;99.90
21306;DHT22;10812;51.838;5.838;2022-10-20T13:59:57;15.20;99.90
21306;DHT22;10812;51.838;5.838;2022-10-20T14:02:28;15.20;99.90
21306;DHT22;10812;51.838;5.838;2022-10-20T14:05:04;15.10;99.90
21306;DHT22;10812;51.838;5.838;2022-10-20T14:07:38;15.00;99.90
21306;DHT22;10812;51.838;5.838;2022-10-20T14:10:20;14.90;99.90
21306;DHT22;10812;51.838;5.838;2022-10-20T14:12:48;14.80;99.90
21306;DHT22;10812;51.838;5.838;2022-10-20T14:15:23;14.90;99.90
21306;DHT22;10812;51.838;5.838;2022-10-20T14:17:56;14.90;99.90
21306;DHT22;10812;51.838;5.838;2022-10-20T14:20:25;15.00;99.90
21306;DHT22;10812;51.838;5.838;2022-10-20T14:22:56;15.00;99.90
21306;DHT22;10812;51.838;5.838;2022-10-20T14:25:25;15.10;99.90
21306;DHT22;10812;51.838;5.838;2022-10-20T14:27:55;15.20;99.90
21306;DHT22;10812;51.838;5.838;2022-10-20T14:30:24;15.30;99.90
21306;DHT22;10812;51.838;5.838;2022-10-20T14:32:53;15.30;99.90
21306;DHT22;10812;51.838;5.838;2022-10-20T14:35:24;15.50;99.90
21306;DHT22;10812;51.838;5.838;2022-10-20T14:37:57;15.60;99.90
21306;DHT22;10812;51.838;5.838;2022-10-20T14:40:27;15.70;99.90
21306;DHT22;10812;51.838;5.838;2022-10-20T14:42:59;15.80;99.90
21306;DHT22;10812;51.838;5.838;2022-10-20T14:45:29;15.80;99.90
21306;DHT22;10812;51.838;5.838;2022-10-20T14:48:04;15.90;99.90
21306;DHT22;10812;51.838;5.838;2022-10-20T14:50:36;15.70;99.90
21306;DHT22;10812;51.838;5.838;2022-10-20T14:53:17;15.70;99.90
21306;DHT22;10812;51.838;5.838;2022-10-20T14:55:46;15.60;99.90
21306;DHT22;10812;51.838;5.838;2022-10-20T14:58:35;15.50;99.90
21306;DHT22;10812;51.838;5.838;2022-10-20T15:01:17;15.40;99.90
21306;DHT22;10812;51.838;5.838;2022-10-20T15:03:46;15.40;99.90
21306;DHT22;10812;51.838;5.838;2022-10-20T15:06:15;15.40;99.90
21306;DHT22;10812;51.838;5.838;2022-10-20T15:08:54;15.50;99.90
21306;DHT22;10812;51.838;5.838;2022-10-20T15:11:25;15.40;99.90
21306;DHT22;10812;51.838;5.838;2022-10-20T15:13:55;15.40;99.90
21306;DHT22;10812;51.838;5.838;2022-10-20T15:16:39;15.40;99.90
21306;DHT22;10812;51.838;5.838;2022-10-20T15:19:32;15.30;99.90
21306;DHT22;10812;51.838;5.838;2022-10-20T15:22:08;15.30;99.90
21306;DHT22;10812;51.838;5.838;2022-10-20T15:24:37;15.30;99.90
21306;DHT22;10812;51.838;5.838;2022-10-20T15:27:08;15.20;99.90
21306;DHT22;10812;51.838;5.838;2022-10-20T15:29:45;15.20;99.90
21306;DHT22;10812;51.838;5.838;2022-10-20T15:32:16;15.20;99.90
21306;DHT22;10812;51.838;5.838;2022-10-20T15:34:44;15.10;99.90
21306;DHT22;10812;51.838;5.838;2022-10-20T15:37:12;15.20;99.90
21306;DHT22;10812;51.838;5.838;2022-10-20T15:39:40;15.10;99.90
21306;DHT22;10812;51.838;5.838;2022-10-20T15:42:10;15.10;99.90
21306;DHT22;10812;51.838;5.838;2022-10-20T15:44:38;15.10;99.90
21306;DHT22;10812;51.838;5.838;2022-10-20T15:47:07;15.10;99.90
21306;DHT22;10812;51.838;5.838;2022-10-20T15:49:37;15.00;99.90
21306;DHT22;10812;51.838;5.838;2022-10-20T15:52:05;15.00;99.90
21306;DHT22;10812;51.838;5.838;2022-10-20T15:54:34;15.00;99.90
21306;DHT22;10812;51.838;5.838;2022-10-20T15:57:02;14.90;99.90
21306;DHT22;10812;51.838;5.838;2022-10-20T15:59:30;14.80;99.90
21306;DHT22;10812;51.838;5.838;2022-10-20T16:01:58;14.90;99.90
21306;DHT22;10812;51.838;5.838;2022-10-20T16:04:26;14.90;99.90
21306;DHT22;10812;51.838;5.838;2022-10-20T16:06:58;14.90;99.90
21306;DHT22;10812;51.838;5.838;2022-10-20T16:09:29;14.80;99.90
21306;DHT22;10812;51.838;5.838;2022-10-20T16:11:57;14.70;99.90
21306;DHT22;10812;51.838;5.838;2022-10-20T16:14:25;14.70;99.90
21306;DHT22;10812;51.838;5.838;2022-10-20T16:16:53;14.70;99.90
21306;DHT22;10812;51.838;5.838;2022-10-20T16:19:21;14.60;99.90
21306;DHT22;10812;51.838;5.838;2022-10-20T16:21:49;14.60;99.90
21306;DHT22;10812;51.838;5.838;2022-10-20T16:24:18;14.50;99.90
21306;DHT22;10812;51.838;5.838;2022-10-20T16:26:46;14.50;99.90
21306;DHT22;10812;51.838;5.838;2022-10-20T16:29:15;14.40;99.90
21306;DHT22;10812;51.838;5.838;2022-10-20T16:31:43;14.30;99.90
21306;DHT22;10812;51.838;5.838;2022-10-20T16:34:11;14.20;99.90
21306;DHT22;10812;51.838;5.838;2022-10-20T16:37:07;14.20;99.90
21306;DHT22;10812;51.838;5.838;2022-10-20T16:39:37;14.20;99.90
21306;DHT22;10812;51.838;5.838;2022-10-20T16:42:05;14.10;99.90
21306;DHT22;10812;51.838;5.838;2022-10-20T16:44:33;14.10;99.90
21306;DHT22;10812;51.838;5.838;2022-10-20T16:47:01;14.00;99.90
21306;DHT22;10812;51.838;5.838;2022-10-20T16:53:26;14.10;99.90
21306;DHT22;10812;51.838;5.838;2022-10-20T16:55:56;14.00;99.90
21306;DHT22;10812;51.838;5.838;2022-10-20T16:58:24;13.90;99.90
21306;DHT22;10812;51.838;5.838;2022-10-20T17:01:01;13.90;99.90
21306;DHT22;10812;51.838;5.838;2022-10-20T17:03:32;13.90;99.90
21306;DHT22;10812;51.838;5.838;2022-10-20T17:06:02;13.80;99.90
21306;DHT22;10812;51.838;5.838;2022-10-20T17:08:31;13.80;99.90
21306;DHT22;10812;51.838;5.838;2022-10-20T17:11:03;13.80;99.90
21306;DHT22;10812;51.838;5.838;2022-10-20T17:13:31;13.80;99.90
21306;DHT22;10812;51.838;5.838;2022-10-20T17:16:03;13.70;99.90
21306;DHT22;10812;51.838;5.838;2022-10-20T17:18:31;13.70;99.90
21306;DHT22;10812;51.838;5.838;2022-10-20T17:21:00;13.70;99.90
21306;DHT22;10812;51.838;5.838;2022-10-20T17:23:30;13.60;99.90